Time;durP1;ratioP1;P1;durP2;ratioP2;P2;SDS_P1;SDS_P2;PMS_P1;PMS_P2;Temp;Humidity;BMP_temperature;BMP_pressure;BME280_temperature;BME280_humidity;BME280_pressure;Samples;Min_cycle;Max_cycle;Signal;HPM_P1;HPM_P2
2022/01/15 00:01:00;;;;;;;15.23;9.88;;;7.40;99.90;;;;;;4786882;29;20043;-83
2022/01/15 00:03:27;;;;;;;18.10;9.82;;;7.50;99.90;;;;;;4787388;30;20047;-83
2022/01/15 00:05:54;;;;;;;14.20;10.15;;;7.40;99.90;;;;;;4786134;30;20549;-83
2022/01/15 00:08:20;;;;;;;13.95;10.27;;;7.50;99.90;;;;;;4786348;30;20406;-83
2022/01/15 00:10:46;;;;;;;13.38;9.50;;;7.50;99.90;;;;;;4770943;30;20051;-83
2022/01/15 00:13:21;;;;;;;12.60;9.07;;;7.50;99.90;;;;;;4785558;30;20058;-83
2022/01/15 00:15:52;;;;;;;12.88;8.95;;;7.40;99.90;;;;;;4786463;30;20051;-83
2022/01/15 00:18:28;;;;;;;;;;;7.40;99.90;;;;;;4788276;29;20047;-83
2022/01/15 00:20:53;;;;;;;13.85;9.02;;;7.40;99.90;;;;;;4786760;30;19929;-83
2022/01/15 00:23:19;;;;;;;13.73;9.52;;;7.40;99.90;;;;;;4787603;30;20103;-83
2022/01/15 00:25:44;;;;;;;17.55;9.73;;;7.40;99.90;;;;;;4787637;29;20047;-83
2022/01/15 00:28:10;;;;;;;13.05;9.63;;;7.50;99.90;;;;;;4771427;30;20137;-83
2022/01/15 00:30:36;;;;;;;18.30;10.07;;;7.40;99.90;;;;;;4787267;29;20105;-83
2022/01/15 00:33:02;;;;;;;14.65;9.48;;;7.40;99.90;;;;;;4786711;30;20059;-83
2022/01/15 00:35:28;;;;;;;13.15;8.82;;;7.40;99.90;;;;;;4787262;29;20391;-83
2022/01/15 00:37:54;;;;;;;11.23;7.97;;;7.40;99.90;;;;;;4771415;30;20055;-83
2022/01/15 00:40:20;;;;;;;10.90;8.00;;;7.30;99.90;;;;;;4787623;29;20054;-83
2022/01/15 00:42:46;;;;;;;12.98;9.02;;;7.40;99.90;;;;;;4785853;30;20051;-83
2022/01/15 00:45:17;;;;;;;13.05;8.65;;;7.50;99.90;;;;;;4786384;30;20055;-83
2022/01/15 00:47:42;;;;;;;13.65;8.73;;;7.50;99.90;;;;;;4787088;29;20428;-83
2022/01/15 00:50:08;;;;;;;12.75;8.70;;;7.40;99.90;;;;;;4786463;30;20146;-83
2022/01/15 00:52:34;;;;;;;15.07;9.43;;;7.40;99.90;;;;;;4787021;29;20417;-83
2022/01/15 00:54:59;;;;;;;18.38;9.90;;;7.50;99.90;;;;;;4787666;29;20529;-83
2022/01/15 00:57:25;;;;;;;16.48;9.85;;;7.40;99.90;;;;;;4786917;30;20043;-83
2022/01/15 00:59:51;;;;;;;16.55;9.40;;;7.40;99.90;;;;;;4786478;30;20055;-83
2022/01/15 01:02:16;;;;;;;12.80;9.02;;;7.40;99.90;;;;;;4786213;30;20047;-83
2022/01/15 01:04:42;;;;;;;14.00;8.70;;;7.40;99.90;;;;;;4786747;29;20063;-83
2022/01/15 01:07:08;;;;;;;15.60;8.75;;;7.40;99.90;;;;;;4787608;29;20087;-83
2022/01/15 01:12:30;;;;;;;14.63;9.27;;;7.30;99.90;;;;;;4790961;29;20116;-82
2022/01/15 01:23:14;;;;;;;18.85;9.48;;;7.40;99.90;;;;;;4785442;30;20051;-82
2022/01/15 01:25:44;;;;;;;15.18;9.10;;;7.30;99.90;;;;;;4790227;29;20063;-82
2022/01/15 01:28:18;;;;;;;13.38;7.82;;;7.40;99.90;;;;;;4789536;30;20047;-82
2022/01/15 01:31:33;;;;;;;13.73;8.60;;;7.50;99.90;;;;;;4790153;29;20200;-83
2022/01/15 01:33:36;;;;;;;13.43;7.80;;;7.40;99.90;;;;;;4791666;29;20546;-83
2022/01/15 01:36:11;;;;;;;10.60;7.07;;;7.50;99.90;;;;;;4775211;30;20051;-82
2022/01/15 01:38:56;;;;;;;9.82;6.93;;;7.40;99.90;;;;;;4790255;29;20070;-83
2022/01/15 01:41:22;;;;;;;11.90;7.68;;;7.40;99.90;;;;;;4789463;30;20055;-82
2022/01/15 01:43:53;;;;;;;11.82;7.65;;;7.30;99.90;;;;;;4788855;30;20086;-83
2022/01/15 01:48:51;;;;;;;13.00;7.15;;;7.40;99.90;;;;;;4789996;29;20384;-83
2022/01/15 01:51:29;;;;;;;9.27;7.32;;;7.30;99.90;;;;;;4789258;30;20062;-83
2022/01/15 01:53:55;;;;;;;8.32;6.65;;;7.40;99.90;;;;;;4789918;30;20055;-83
2022/01/15 01:56:21;;;;;;;11.52;7.72;;;7.30;99.90;;;;;;4789063;30;20058;-82
2022/01/15 01:58:47;;;;;;;9.27;7.15;;;7.30;99.90;;;;;;4789758;29;20043;-83
2022/01/15 02:01:12;;;;;;;10.60;6.88;;;7.30;99.90;;;;;;4789074;30;20387;-83
2022/01/15 02:03:38;;;;;;;9.75;6.88;;;7.30;99.90;;;;;;4789690;29;20055;-83
2022/01/15 02:06:04;;;;;;;10.43;7.03;;;7.40;99.90;;;;;;4788898;30;20142;-83
2022/01/15 02:08:33;;;;;;;9.40;6.13;;;7.30;99.90;;;;;;4774010;30;20418;-83
2022/01/15 02:10:58;;;;;;;8.82;6.35;;;7.30;99.90;;;;;;4788342;30;20055;-82
2022/01/15 02:13:24;;;;;;;10.38;6.90;;;7.30;99.90;;;;;;4773865;30;20460;-82
2022/01/15 02:15:50;;;;;;;10.07;6.82;;;7.30;99.90;;;;;;4787869;30;20047;-83
2022/01/15 02:18:15;;;;;;;11.45;7.07;;;7.30;99.90;;;;;;4787390;29;20088;-83
2022/01/15 02:23:32;;;;;;;9.00;6.72;;;7.30;99.90;;;;;;4788288;30;20108;-83
2022/01/15 02:23:33;;;;;;;10.63;7.25;;;7.30;99.90;;;;;;4787722;30;20418;-83
2022/01/15 02:26:02;;;;;;;9.23;6.70;;;7.30;99.90;;;;;;4787675;30;20063;-83
2022/01/15 02:28:38;;;;;;;9.50;6.68;;;7.30;99.90;;;;;;4789547;29;20130;-83
2022/01/15 02:31:14;;;;;;;9.05;6.45;;;7.30;99.90;;;;;;4789782;29;20414;-83
2022/01/15 02:33:40;;;;;;;9.05;6.47;;;7.30;99.90;;;;;;4788083;30;20057;-83
2022/01/15 02:36:08;;;;;;;8.02;6.03;;;7.30;99.90;;;;;;4788150;30;20565;-83
2022/01/15 02:38:36;;;;;;;6.72;5.30;;;7.30;99.90;;;;;;4789664;30;20059;-83
2022/01/15 02:41:01;;;;;;;6.10;4.75;;;7.30;99.90;;;;;;4789210;30;20115;-83
2022/01/15 02:43:32;;;;;;;6.63;4.60;;;7.30;99.90;;;;;;4788271;30;20047;-83
2022/01/15 02:46:08;;;;;;;5.80;4.78;;;7.30;99.90;;;;;;4788979;29;20055;-83
2022/01/15 02:48:36;;;;;;;7.72;5.72;;;7.20;99.90;;;;;;4789313;30;20051;-83
2022/01/15 02:51:02;;;;;;;9.52;6.45;;;7.30;99.90;;;;;;4788857;29;20059;-83
2022/01/15 02:53:27;;;;;;;8.52;6.43;;;7.30;99.90;;;;;;4789254;29;20047;-83
2022/01/15 02:55:53;;;;;;;8.60;5.30;;;7.20;99.90;;;;;;4788692;29;20411;-83
2022/01/15 02:58:21;;;;;;;8.75;5.72;;;7.30;99.90;;;;;;4789232;29;20115;-83
2022/01/15 03:00:47;;;;;;;7.07;5.88;;;7.30;99.90;;;;;;4787607;30;20059;-83
2022/01/15 03:03:13;;;;;;;7.00;5.10;;;7.30;99.90;;;;;;4787602;30;20063;-82
2022/01/15 03:05:38;;;;;;;8.50;5.15;;;7.20;99.90;;;;;;4789163;30;20052;-83
2022/01/15 03:08:04;;;;;;;6.57;5.18;;;7.20;99.90;;;;;;4787334;30;20086;-83
2022/01/15 03:10:30;;;;;;;7.90;5.53;;;7.20;99.90;;;;;;4787950;30;20387;-83
2022/01/15 03:12:57;;;;;;;7.70;4.97;;;7.20;99.90;;;;;;4772750;30;20411;-82
2022/01/15 03:15:23;;;;;;;8.32;5.03;;;7.20;99.90;;;;;;4788807;29;20070;-83
2022/01/15 03:17:49;;;;;;;8.07;4.88;;;7.30;99.90;;;;;;4787265;30;20047;-83
2022/01/15 03:20:16;;;;;;;6.53;5.18;;;7.20;99.90;;;;;;4787372;30;20517;-83
2022/01/15 03:22:42;;;;;;;6.22;5.00;;;7.20;99.90;;;;;;4787658;30;20103;-83
2022/01/15 03:25:08;;;;;;;6.80;5.38;;;7.20;99.90;;;;;;4787231;30;20087;-83
2022/01/15 03:27:33;;;;;;;6.65;5.25;;;7.20;99.90;;;;;;4771467;30;20574;-83
2022/01/15 03:29:59;;;;;;;6.25;4.63;;;7.20;99.90;;;;;;4786798;29;20137;-83
2022/01/15 03:32:25;;;;;;;7.00;5.32;;;7.20;99.90;;;;;;4787446;30;20055;-83
2022/01/15 03:34:50;;;;;;;7.88;5.80;;;7.20;99.90;;;;;;4786990;29;20062;-82
2022/01/15 03:37:16;;;;;;;7.70;5.70;;;7.20;99.90;;;;;;4786047;30;20059;-83
2022/01/15 03:39:42;;;;;;;9.38;5.82;;;7.10;99.90;;;;;;4786115;30;20091;-83
2022/01/15 03:42:13;;;;;;;7.35;5.70;;;7.20;99.90;;;;;;4787103;29;20137;-83
2022/01/15 03:44:44;;;;;;;7.78;5.75;;;7.20;99.90;;;;;;4786435;30;20059;-83
2022/01/15 03:47:10;;;;;;;8.13;6.00;;;7.30;99.90;;;;;;4786067;30;20533;-83
2022/01/15 03:49:36;;;;;;;7.28;5.97;;;7.20;99.90;;;;;;4786923;30;20502;-83
2022/01/15 03:52:02;;;;;;;6.68;5.53;;;7.20;99.90;;;;;;4786811;30;20104;-83
2022/01/15 03:54:27;;;;;;;8.02;5.63;;;7.20;99.90;;;;;;4772466;30;20391;-83
2022/01/15 03:56:53;;;;;;;7.80;5.75;;;7.20;99.90;;;;;;4787888;29;20055;-83
2022/01/15 03:59:19;;;;;;;7.10;5.38;;;7.20;99.90;;;;;;4788103;29;20043;-83
2022/01/15 04:01:45;;;;;;;7.70;5.75;;;7.10;99.90;;;;;;4788060;29;20138;-83
2022/01/15 04:04:11;;;;;;;7.43;5.63;;;7.10;99.90;;;;;;4786496;30;20390;-83
2022/01/15 04:06:36;;;;;;;7.68;5.38;;;7.10;99.90;;;;;;4787134;30;20054;-83
2022/01/15 04:09:02;;;;;;;7.50;5.43;;;7.10;99.90;;;;;;4786370;30;20051;-83
2022/01/15 04:11:28;;;;;;;8.52;5.15;;;7.10;99.90;;;;;;4787861;29;20062;-83
2022/01/15 04:13:54;;;;;;;7.05;5.18;;;7.10;99.90;;;;;;4787575;29;20059;-83
2022/01/15 04:16:20;;;;;;;6.72;5.55;;;7.10;99.90;;;;;;4786676;30;20062;-82
2022/01/15 04:18:45;;;;;;;6.65;4.80;;;7.10;99.90;;;;;;4787869;29;20051;-83
2022/01/15 04:21:11;;;;;;;7.00;5.13;;;7.20;99.90;;;;;;4787328;29;20141;-83
2022/01/15 04:23:37;;;;;;;7.72;6.07;;;7.20;99.90;;;;;;4787908;29;20407;-83
2022/01/15 04:26:03;;;;;;;7.30;5.45;;;7.00;99.90;;;;;;4771294;30;20402;-83
2022/01/15 04:28:31;;;;;;;8.07;4.88;;;7.20;99.90;;;;;;4787685;29;20051;-83
2022/01/15 04:31:04;;;;;;;6.93;5.97;;;7.00;99.90;;;;;;4771086;30;20062;-83
2022/01/15 04:33:31;;;;;;;7.57;5.43;;;7.20;99.90;;;;;;4787794;29;20055;-83
2022/01/15 04:35:57;;;;;;;7.47;5.18;;;7.00;99.90;;;;;;4786321;30;20095;-83
2022/01/15 04:38:23;;;;;;;6.20;5.13;;;7.10;99.90;;;;;;4787607;29;20179;-83
2022/01/15 04:40:48;;;;;;;5.18;4.60;;;7.10;99.90;;;;;;4787070;30;20051;-83
2022/01/15 04:43:14;;;;;;;6.00;5.00;;;7.10;99.90;;;;;;4786797;29;20059;-83
2022/01/15 04:45:40;;;;;;;7.00;4.68;;;7.10;99.90;;;;;;4787174;29;20062;-83
2022/01/15 04:48:05;;;;;;;5.75;4.72;;;7.00;99.90;;;;;;4786103;30;20043;-83
2022/01/15 04:50:31;;;;;;;6.00;4.63;;;7.00;99.90;;;;;;4786869;29;20135;-83
2022/01/15 04:52:57;;;;;;;5.50;4.45;;;7.00;99.90;;;;;;4786471;29;20483;-83
2022/01/15 04:55:22;;;;;;;4.65;3.95;;;7.00;99.90;;;;;;4784913;30;20060;-83
2022/01/15 04:57:48;;;;;;;4.82;3.65;;;7.00;99.90;;;;;;4786506;29;20052;-83
2022/01/15 05:00:15;;;;;;;5.15;3.90;;;7.00;99.90;;;;;;4786425;29;20410;-83
2022/01/15 05:02:40;;;;;;;5.40;3.42;;;7.00;99.90;;;;;;4787453;30;20055;-83
2022/01/15 05:05:08;;;;;;;6.60;3.75;;;7.00;99.90;;;;;;4785759;30;20082;-83
2022/01/15 05:07:33;;;;;;;3.38;3.08;;;6.90;99.90;;;;;;4786296;30;20414;-83
2022/01/15 05:09:59;;;;;;;3.63;3.03;;;6.90;99.90;;;;;;4787174;29;20134;-83
2022/01/15 05:12:42;;;;;;;3.70;3.20;;;6.90;99.90;;;;;;4786945;29;20465;-83
2022/01/15 05:15:08;;;;;;;3.95;2.72;;;6.90;99.90;;;;;;4786968;29;20063;-83
2022/01/15 05:17:34;;;;;;;2.72;2.40;;;6.90;99.90;;;;;;4786200;30;20047;-83
2022/01/15 05:20:00;;;;;;;3.10;2.28;;;6.90;99.90;;;;;;4787263;29;20132;-83
2022/01/15 05:22:25;;;;;;;2.47;2.20;;;6.90;99.90;;;;;;4786786;29;20140;-83
2022/01/15 05:24:51;;;;;;;2.70;2.33;;;6.80;99.90;;;;;;4787249;29;20055;-83
2022/01/15 05:27:17;;;;;;;3.75;2.45;;;6.80;99.90;;;;;;4786756;29;20054;-83
2022/01/15 05:29:44;;;;;;;3.25;2.50;;;6.80;99.90;;;;;;4785954;30;20431;-83
2022/01/15 05:32:09;;;;;;;3.58;2.15;;;6.90;99.90;;;;;;4786843;29;20066;-83
2022/01/15 05:34:35;;;;;;;3.40;2.60;;;6.90;99.90;;;;;;4785953;30;20043;-83
2022/01/15 05:37:01;;;;;;;2.90;2.22;;;6.80;99.90;;;;;;4787100;30;20142;-83
2022/01/15 05:39:27;;;;;;;3.72;2.50;;;6.80;99.90;;;;;;4770959;30;20056;-83
2022/01/15 05:41:53;;;;;;;3.28;2.78;;;6.90;99.90;;;;;;4786932;30;20059;-83
2022/01/15 05:44:19;;;;;;;2.85;2.50;;;6.80;99.90;;;;;;4786578;29;20047;-82
2022/01/15 05:46:45;;;;;;;3.38;2.80;;;6.80;99.90;;;;;;4771287;30;20100;-83
2022/01/15 05:49:10;;;;;;;4.50;2.80;;;6.80;99.90;;;;;;4786572;29;20473;-83
2022/01/15 05:51:36;;;;;;;3.80;2.95;;;6.80;99.90;;;;;;4785833;30;20185;-83
2022/01/15 05:54:03;;;;;;;4.65;3.00;;;6.80;99.90;;;;;;4789026;29;20044;-83
2022/01/15 05:56:29;;;;;;;3.42;2.90;;;6.80;99.90;;;;;;4773880;30;20063;-82
2022/01/15 05:58:55;;;;;;;3.80;3.30;;;6.80;99.90;;;;;;4788898;30;20091;-83
2022/01/15 06:01:21;;;;;;;4.50;3.10;;;6.70;99.90;;;;;;4787634;30;20091;-87
2022/01/15 06:03:46;;;;;;;3.97;3.20;;;6.80;99.90;;;;;;4745346;30;20213;-84
2022/01/15 06:06:12;;;;;;;4.78;3.28;;;6.80;99.90;;;;;;4775536;30;20062;-86
2022/01/15 06:08:38;;;;;;;4.10;2.83;;;6.80;99.90;;;;;;4774669;30;20067;-85
2022/01/15 06:11:03;;;;;;;2.83;2.53;;;6.70;99.90;;;;;;4775229;30;20062;-86
2022/01/15 06:13:29;;;;;;;4.93;2.60;;;6.70;99.90;;;;;;4774522;30;20304;-85
2022/01/15 06:15:55;;;;;;;2.90;2.60;;;6.70;99.90;;;;;;4760049;30;20051;-85
2022/01/15 06:18:20;;;;;;;4.13;2.55;;;6.80;99.90;;;;;;4759154;30;20256;-85
2022/01/15 06:20:46;;;;;;;4.22;2.60;;;6.70;99.90;;;;;;4774107;30;20065;-85
2022/01/15 06:23:11;;;;;;;5.07;3.17;;;6.70;99.90;;;;;;4788649;30;20098;-87
2022/01/15 06:25:37;;;;;;;4.25;2.70;;;6.80;99.90;;;;;;4789425;30;20051;-86
2022/01/15 06:28:03;;;;;;;3.75;2.63;;;6.80;99.90;;;;;;4774484;30;20058;-85
2022/01/15 06:30:28;;;;;;;4.10;2.72;;;6.70;99.90;;;;;;4789472;29;20062;-86
2022/01/15 06:32:54;;;;;;;4.18;2.75;;;6.70;99.90;;;;;;4790138;29;20083;-86
2022/01/15 06:35:20;;;;;;;5.00;2.80;;;6.70;99.90;;;;;;4758171;30;20106;-86
2022/01/15 06:37:49;;;;;;;3.83;2.72;;;6.70;99.90;;;;;;4788080;30;20070;-87
2022/01/15 06:40:15;;;;;;;4.15;2.60;;;6.70;99.90;;;;;;4773450;30;20059;-87
2022/01/15 06:42:41;;;;;;;3.03;2.38;;;6.70;99.90;;;;;;4773770;30;20104;-85
2022/01/15 06:45:07;;;;;;;2.85;2.15;;;6.80;99.90;;;;;;4758902;30;20052;-85
2022/01/15 06:47:33;;;;;;;3.60;2.30;;;6.70;99.90;;;;;;4787835;30;20051;-85
2022/01/15 06:50:04;;;;;;;3.47;2.40;;;6.70;99.90;;;;;;4758344;30;20079;-85
2022/01/15 06:52:30;;;;;;;;;;;6.70;99.90;;;;;;4788292;30;20055;-86
2022/01/15 06:54:56;;;;;;;3.08;2.30;;;6.60;99.90;;;;;;4788444;30;20020;-85
2022/01/15 06:57:21;;;;;;;2.97;2.40;;;6.70;99.90;;;;;;4787635;30;20134;-86
2022/01/15 06:59:47;;;;;;;5.00;2.65;;;6.70;99.90;;;;;;4773473;30;20106;-85
2022/01/15 07:02:13;;;;;;;3.17;2.83;;;6.60;99.90;;;;;;4773243;30;20606;-84
2022/01/15 07:04:39;;;;;;;3.33;2.90;;;6.60;99.90;;;;;;4757125;30;20055;-84
2022/01/15 07:07:04;;;;;;;4.13;2.72;;;6.70;99.90;;;;;;4789113;29;20125;-85
2022/01/15 07:09:30;;;;;;;3.47;2.70;;;6.70;99.90;;;;;;4757878;30;20521;-85
2022/01/15 07:11:56;;;;;;;4.18;2.85;;;6.70;99.90;;;;;;4788166;30;20066;-85
2022/01/15 07:14:22;;;;;;;4.22;3.17;;;6.60;99.90;;;;;;4787357;30;20051;-86
2022/01/15 07:16:47;;;;;;;3.55;3.15;;;6.70;99.90;;;;;;4772928;30;20051;-86
2022/01/15 07:19:13;;;;;;;6.45;3.15;;;6.70;99.90;;;;;;4773027;30;20051;-85
2022/01/15 07:21:39;;;;;;;5.72;3.40;;;6.60;99.90;;;;;;4787394;30;20417;-84
2022/01/15 07:24:04;;;;;;;4.88;3.92;;;6.70;99.90;;;;;;4772948;30;20052;-87
2022/01/15 07:26:30;;;;;;;5.10;3.45;;;6.60;99.90;;;;;;4772488;30;20418;-87
2022/01/15 07:28:57;;;;;;;6.18;4.22;;;6.60;99.90;;;;;;4772662;30;20051;-88
2022/01/15 07:31:23;;;;;;;7.32;4.00;;;6.60;99.90;;;;;;4772574;30;20130;-87
2022/01/15 07:33:49;;;;;;;4.50;3.53;;;6.60;99.90;;;;;;4787700;30;20542;-87
2022/01/15 07:36:14;;;;;;;6.22;4.43;;;6.60;99.90;;;;;;4788656;29;20130;-88
2022/01/15 07:38:40;;;;;;;6.20;4.45;;;6.60;99.90;;;;;;4757220;30;20059;-87
2022/01/15 07:41:10;;;;;;;5.25;4.40;;;6.60;99.90;;;;;;4772428;30;20452;-87
2022/01/15 07:43:36;;;;;;;5.55;4.18;;;6.50;99.90;;;;;;4787128;30;20055;-85
2022/01/15 07:46:02;;;;;;;5.45;4.40;;;6.60;99.90;;;;;;4787345;30;20513;-84
2022/01/15 07:48:27;;;;;;;7.57;4.97;;;6.60;99.90;;;;;;4786812;30;20054;-85
2022/01/15 07:50:53;;;;;;;7.97;5.10;;;6.60;99.90;;;;;;4787360;30;20479;-87
2022/01/15 07:53:19;;;;;;;6.78;5.10;;;6.50;99.90;;;;;;4787072;30;20507;-85
2022/01/15 07:55:44;;;;;;;9.80;5.68;;;6.60;99.90;;;;;;4786920;30;20055;-84
2022/01/15 07:58:10;;;;;;;9.35;5.40;;;6.60;99.90;;;;;;4772255;30;20130;-85
2022/01/15 08:00:36;;;;;;;7.53;5.43;;;6.60;99.90;;;;;;4786571;30;20051;-83
2022/01/15 08:03:01;;;;;;;8.13;5.63;;;6.60;99.90;;;;;;4757224;30;20047;-83
2022/01/15 08:05:27;;;;;;;7.43;5.60;;;6.60;99.90;;;;;;4787410;30;20134;-85
2022/01/15 08:07:52;;;;;;;6.78;5.50;;;6.60;99.90;;;;;;4772102;30;20057;-84
2022/01/15 08:10:18;;;;;;;9.20;5.68;;;6.60;99.90;;;;;;4786504;30;20059;-84
2022/01/15 08:12:49;;;;;;;7.60;5.63;;;6.60;99.90;;;;;;4771851;30;20051;-84
2022/01/15 08:15:18;;;;;;;6.47;4.88;;;6.50;99.90;;;;;;4772190;30;20099;-85
2022/01/15 08:17:44;;;;;;;6.50;4.88;;;6.60;99.90;;;;;;4787293;30;20522;-83
2022/01/15 08:20:10;;;;;;;5.72;4.25;;;6.50;99.90;;;;;;4786707;30;20052;-87
2022/01/15 08:22:36;;;;;;;7.15;5.20;;;6.60;99.90;;;;;;4771510;30;20209;-85
2022/01/15 08:25:01;;;;;;;7.07;5.03;;;6.60;99.90;;;;;;4771704;30;20078;-86
2022/01/15 08:27:27;;;;;;;7.93;5.13;;;6.60;99.90;;;;;;4771799;30;20075;-86
2022/01/15 08:29:53;;;;;;;5.45;4.40;;;6.50;99.90;;;;;;4785543;30;20054;-86
2022/01/15 08:32:18;;;;;;;7.47;5.10;;;6.50;99.90;;;;;;4787515;29;20051;-86
2022/01/15 08:34:44;;;;;;;6.28;4.90;;;6.50;99.90;;;;;;4785864;30;20139;-86
2022/01/15 08:37:10;;;;;;;7.60;5.10;;;6.60;99.90;;;;;;4756692;30;20423;-86
2022/01/15 08:39:36;;;;;;;6.40;4.95;;;6.60;99.90;;;;;;4771122;30;20051;-86
2022/01/15 08:42:05;;;;;;;5.55;4.65;;;6.60;99.90;;;;;;4771610;30;20410;-86
2022/01/15 08:44:31;;;;;;;6.13;5.00;;;6.60;99.90;;;;;;4786571;30;20444;-86
2022/01/15 08:46:56;;;;;;;8.20;5.55;;;6.60;99.90;;;;;;4786438;30;20047;-86
2022/01/15 08:49:22;;;;;;;7.32;5.40;;;6.60;99.90;;;;;;4786340;30;20063;-86
2022/01/15 08:51:48;;;;;;;6.93;5.25;;;6.50;99.90;;;;;;4786114;30;20055;-85
2022/01/15 08:54:13;;;;;;;7.07;5.47;;;6.50;99.90;;;;;;4771513;30;20047;-85
2022/01/15 08:56:39;;;;;;;7.95;5.80;;;6.60;99.90;;;;;;4786905;30;20063;-85
2022/01/15 08:59:05;;;;;;;8.40;6.53;;;6.60;99.90;;;;;;4771594;30;20494;-85
2022/01/15 09:01:31;;;;;;;7.53;5.93;;;6.60;99.90;;;;;;4787528;29;20436;-85
2022/01/15 09:03:57;;;;;;;9.35;6.57;;;6.50;99.90;;;;;;4786865;29;20093;-86
2022/01/15 09:06:23;;;;;;;9.35;6.80;;;6.50;99.90;;;;;;4787286;29;20066;-86
2022/01/15 09:08:49;;;;;;;8.30;6.25;;;6.60;99.90;;;;;;4756341;30;20051;-86
2022/01/15 09:11:15;;;;;;;10.20;6.63;;;6.60;99.90;;;;;;4786241;30;20376;-84
2022/01/15 09:13:41;;;;;;;8.20;6.68;;;6.60;99.90;;;;;;4785959;30;20525;-86
2022/01/15 09:16:06;;;;;;;8.32;6.55;;;6.60;99.90;;;;;;4785976;30;20043;-85
2022/01/15 09:18:34;;;;;;;10.80;7.00;;;6.60;99.90;;;;;;4786161;30;20073;-86
2022/01/15 09:20:59;;;;;;;7.85;6.55;;;6.60;99.90;;;;;;4786770;29;20055;-87
2022/01/15 09:23:25;;;;;;;9.50;7.10;;;6.60;99.90;;;;;;4771395;30;20555;-86
2022/01/15 09:25:52;;;;;;;10.25;7.10;;;6.60;99.90;;;;;;4785613;30;20055;-85
2022/01/15 09:31:02;;;;;;;9.57;7.13;;;6.70;99.90;;;;;;4789121;30;20142;-86
2022/01/15 09:33:27;;;;;;;9.35;7.68;;;6.70;99.90;;;;;;4789991;29;20141;-86
2022/01/15 09:35:53;;;;;;;10.02;8.25;;;6.70;99.90;;;;;;4789656;30;20055;-84
2022/01/15 09:38:20;;;;;;;8.75;7.38;;;6.70;99.90;;;;;;4773655;30;20067;-84
2022/01/15 09:40:46;;;;;;;10.65;8.00;;;6.70;99.90;;;;;;4788444;30;20403;-84
2022/01/15 09:43:13;;;;;;;9.48;7.82;;;6.80;99.90;;;;;;4789317;30;20141;-84
2022/01/15 09:45:39;;;;;;;10.30;8.02;;;6.70;99.90;;;;;;4789196;30;20095;-84
2022/01/15 09:48:06;;;;;;;11.13;8.30;;;6.80;99.90;;;;;;4788985;30;20060;-84
2022/01/15 09:50:36;;;;;;;11.52;8.15;;;6.80;99.90;;;;;;4789242;30;20059;-84
2022/01/15 09:53:02;;;;;;;;;;;6.80;99.90;;;;;;4790339;29;20108;-84
2022/01/15 09:55:28;;;;;;;11.00;8.13;;;6.70;99.90;;;;;;4804219;29;19929;-84
2022/01/15 09:57:54;;;;;;;11.90;8.35;;;6.70;99.90;;;;;;4789694;29;20055;-84
2022/01/15 10:00:20;;;;;;;12.40;8.63;;;6.70;99.90;;;;;;4774238;30;20070;-84
2022/01/15 10:02:47;;;;;;;12.18;9.45;;;6.70;99.90;;;;;;4773873;30;20062;-84
2022/01/15 10:05:13;;;;;;;11.35;8.55;;;6.70;99.90;;;;;;4789107;30;20059;-84
2022/01/15 10:07:58;;;;;;;11.85;8.77;;;6.70;99.90;;;;;;4759501;30;20055;-84
2022/01/15 10:10:25;;;;;;;12.35;9.32;;;6.70;99.90;;;;;;4775442;30;20087;-84
2022/01/15 10:12:50;;;;;;;11.98;8.48;;;6.70;99.90;;;;;;4773667;30;20104;-84
2022/01/15 10:15:16;;;;;;;11.60;8.48;;;6.70;99.90;;;;;;4788949;30;20142;-84
2022/01/15 10:17:43;;;;;;;11.00;8.68;;;6.70;99.90;;;;;;4788741;30;20070;-84
2022/01/15 10:20:13;;;;;;;12.63;8.30;;;6.80;99.90;;;;;;4788232;30;20402;-84
2022/01/15 10:22:40;;;;;;;;;;;6.70;99.90;;;;;;4774158;30;20055;-84
2022/01/15 10:25:10;;;;;;;10.02;7.43;;;6.70;99.90;;;;;;4788558;30;19948;-84
2022/01/15 10:27:39;;;;;;;9.38;7.63;;;6.70;99.90;;;;;;4773111;30;20156;-85
2022/01/15 10:30:10;;;;;;;10.52;7.63;;;6.70;99.90;;;;;;4787340;30;20406;-84
2022/01/15 10:32:42;;;;;;;10.30;7.38;;;6.70;99.90;;;;;;4789070;29;20503;-85
2022/01/15 10:35:12;;;;;;;9.90;7.85;;;6.60;99.90;;;;;;4773156;30;20096;-84
2022/01/15 10:37:48;;;;;;;10.38;7.65;;;6.60;99.90;;;;;;4789319;29;20408;-85
2022/01/15 10:40:14;;;;;;;12.73;10.07;;;6.70;99.90;;;;;;4787240;29;20047;-85
2022/01/15 10:42:40;;;;;;;12.32;8.32;;;6.70;99.90;;;;;;4788620;29;20047;-85
2022/01/15 10:45:13;;;;;;;13.75;8.85;;;6.70;99.90;;;;;;4787936;30;20047;-85
2022/01/15 10:47:48;;;;;;;12.70;8.93;;;6.70;99.90;;;;;;4789489;29;20051;-84
2022/01/15 10:50:32;;;;;;;18.55;14.13;;;6.70;99.90;;;;;;4788159;30;20078;-84
2022/01/15 10:52:58;;;;;;;12.90;9.82;;;6.70;99.90;;;;;;4787838;30;20059;-84
2022/01/15 10:55:28;;;;;;;13.15;9.88;;;6.70;99.90;;;;;;4773320;30;20055;-85
2022/01/15 10:57:59;;;;;;;14.85;10.43;;;6.60;99.90;;;;;;4787688;30;20047;-84
2022/01/15 11:00:26;;;;;;;;;;;6.70;99.90;;;;;;4788783;30;20059;-84
2022/01/15 11:03:02;;;;;;;16.85;13.10;;;6.60;99.90;;;;;;4787555;30;20012;-84
2022/01/15 11:05:29;;;;;;;19.23;12.30;;;6.60;99.90;;;;;;4789215;30;20063;-84
2022/01/15 11:08:03;;;;;;;18.02;12.32;;;6.70;99.90;;;;;;4788725;29;20055;-84
2022/01/15 11:10:39;;;;;;;18.75;12.45;;;6.70;99.90;;;;;;4788048;30;20093;-84
2022/01/15 11:13:10;;;;;;;16.33;11.60;;;6.70;99.90;;;;;;4788407;29;20525;-84
2022/01/15 11:15:36;;;;;;;15.32;11.07;;;6.50;99.90;;;;;;4788125;30;20107;-84
2022/01/15 11:18:02;;;;;;;15.93;11.43;;;6.60;99.90;;;;;;4787551;30;20530;-84
2022/01/15 11:20:30;;;;;;;16.95;12.02;;;6.60;99.90;;;;;;4788996;30;20130;-84
2022/01/15 11:22:55;;;;;;;17.48;11.93;;;6.60;99.90;;;;;;4787296;30;20051;-84
2022/01/15 11:25:21;;;;;;;19.30;13.88;;;6.60;99.90;;;;;;4773025;30;20063;-84
2022/01/15 11:28:14;;;;;;;31.50;24.20;;;6.60;99.90;;;;;;4772800;30;20495;-85
2022/01/15 11:30:40;;;;;;;22.98;15.48;;;6.60;99.90;;;;;;4787754;30;20066;-84
2022/01/15 11:33:06;;;;;;;20.88;15.55;;;6.50;99.90;;;;;;4787085;30;20145;-85
2022/01/15 11:35:40;;;;;;;19.02;13.07;;;6.60;99.90;;;;;;4787485;30;20141;-85
2022/01/15 11:38:06;;;;;;;21.38;15.95;;;6.50;99.90;;;;;;4787982;29;20105;-84
2022/01/15 11:40:35;;;;;;;27.77;20.45;;;6.50;99.90;;;;;;4772383;30;20506;-84
2022/01/15 11:43:26;;;;;;;16.77;12.30;;;6.50;99.90;;;;;;4788132;30;20084;-84
2022/01/15 11:45:52;;;;;;;28.50;25.02;;;6.50;99.90;;;;;;4788494;29;20126;-85
2022/01/15 11:48:22;;;;;;;27.92;24.23;;;6.50;99.90;;;;;;4787918;29;20063;-84
2022/01/15 11:51:13;;;;;;;22.27;18.60;;;6.60;99.90;;;;;;4788107;29;20055;-85
2022/01/15 11:53:48;;;;;;;13.98;10.13;;;6.50;99.90;;;;;;4788352;29;20066;-85
2022/01/15 11:56:20;;;;;;;13.45;9.88;;;6.40;99.90;;;;;;4786678;30;20120;-84
2022/01/15 11:58:45;;;;;;;18.33;13.80;;;6.40;99.90;;;;;;4788236;29;20062;-85
2022/01/15 12:01:37;;;;;;;12.40;10.00;;;6.40;99.90;;;;;;4771958;30;20059;-85
2022/01/15 12:04:22;;;;;;;11.88;9.73;;;6.50;99.90;;;;;;4787717;29;20090;-84
2022/01/15 12:07:20;;;;;;;13.23;9.77;;;6.40;99.90;;;;;;4772391;30;20059;-85
2022/01/15 12:09:51;;;;;;;14.85;10.57;;;6.40;99.90;;;;;;4786421;30;20055;-85
2022/01/15 12:12:40;;;;;;;14.55;10.60;;;6.30;99.90;;;;;;4787434;29;20059;-85
2022/01/15 12:15:07;;;;;;;17.17;14.10;;;6.40;99.90;;;;;;4787611;29;20128;-84
2022/01/15 12:17:39;;;;;;;12.95;10.48;;;6.40;99.90;;;;;;4757560;30;20059;-85
2022/01/15 12:20:28;;;;;;;13.55;10.93;;;6.40;99.90;;;;;;4771663;30;20422;-84
2022/01/15 12:22:57;;;;;;;14.05;11.23;;;6.40;99.90;;;;;;4786539;30;20459;-84
2022/01/15 12:25:26;;;;;;;16.10;11.38;;;6.40;99.90;;;;;;4771476;30;20061;-84
2022/01/15 12:28:03;;;;;;;14.15;11.13;;;6.40;99.90;;;;;;4787784;29;20108;-85
2022/01/15 12:30:42;;;;;;;12.45;10.15;;;6.40;99.90;;;;;;4772376;30;20048;-85
2022/01/15 12:33:13;;;;;;;14.25;11.18;;;6.30;99.90;;;;;;4786339;30;20073;-84
2022/01/15 12:35:40;;;;;;;19.35;15.20;;;6.40;99.90;;;;;;4786314;30;20055;-84
2022/01/15 12:38:10;;;;;;;13.45;10.95;;;6.40;99.90;;;;;;4785925;30;20063;-84
2022/01/15 12:40:44;;;;;;;19.25;14.68;;;6.30;99.90;;;;;;4786511;30;20422;-84
2022/01/15 12:43:12;;;;;;;14.73;12.18;;;6.30;99.90;;;;;;4787330;29;20090;-84
2022/01/15 12:45:39;;;;;;;17.20;12.55;;;6.30;99.90;;;;;;4771709;30;20495;-85
2022/01/15 12:48:05;;;;;;;18.30;14.43;;;6.40;99.90;;;;;;4787370;30;20136;-84
2022/01/15 12:50:42;;;;;;;17.52;14.02;;;6.40;99.90;;;;;;4787461;29;20120;-87
2022/01/15 12:53:07;;;;;;;17.33;12.88;;;6.40;99.90;;;;;;4771941;30;20055;-86
2022/01/15 12:55:36;;;;;;;20.20;13.73;;;6.40;99.90;;;;;;4786577;30;20043;-85
2022/01/15 12:58:03;;;;;;;16.33;13.20;;;6.40;99.90;;;;;;4757152;30;20159;-87
2022/01/15 13:00:30;;;;;;;17.63;13.23;;;6.40;99.90;;;;;;4786371;30;20383;-85
2022/01/15 13:03:00;;;;;;;29.60;16.15;;;6.50;99.90;;;;;;4773454;30;20059;-85
2022/01/15 13:05:30;;;;;;;16.70;12.40;;;6.50;99.90;;;;;;4776686;30;20133;-86
2022/01/15 13:08:13;;;;;;;15.32;11.45;;;6.50;99.90;;;;;;4760131;30;20055;-87
2022/01/15 13:10:50;;;;;;;16.25;11.38;;;6.40;99.90;;;;;;4761735;30;20517;-83
2022/01/15 13:13:20;;;;;;;13.55;11.02;;;6.40;99.90;;;;;;4760328;30;20071;-85